Weather



ICAO METAR
KAEX KAEX 111253Z 00000KT 6SM BR CLR 24/23 A3002 RMK AO2 SLP167 T02440233
KAUS KAUS 111317Z 17005KT 8SM FEW008 FEW023 27/25 A3003 RMK AO2 T02670250
KBPT KBPT 111253Z 18003KT 10SM SCT025 26/26 A3001 RMK AO2 SLP162 T02610261
KBTR KBTR 111253Z 27003KT 10SM CLR 27/24 A3005 RMK AO2 SLP173 T02720239
KCLL KCLL 111253Z 16005KT 9SM CLR 26/25 A3003 RMK AO2 SLP163 T02560250
KCRP KCRP 111251Z 15004KT 10SM FEW015 28/26 A2998 RMK AO2 SLP152 CB DSNT NE MOV N TCU DSNT NE E T02780261
KCXO KCXO 111253Z 00000KT 10SM FEW019 26/24 A3004 RMK AO2 SLP169 T02560244
KDLF KDLF 111256Z AUTO 12010KT 10SM CLR 26/22 A2999 RMK AO2 SLP141 T02570218 CHINO RWY31 $
KDWH KDWH 111253Z AUTO 00000KT 10SM CLR 27/25 A3003 RMK AO2 SLP165 T02720250 $
KEFD KEFD 111250Z 15005KT 10SM FEW025 28/25 A3000
KGLS KGLS 111252Z 18010KT 10SM FEW022 31/26 A3002 RMK AO2 SLP165 T03060256
KGPT KGPT 111253Z 29004KT 10SM CLR 27/23 A3003 RMK AO2 SLP170 T02720233
KHOU KHOU 111253Z 16004KT 10SM FEW020 28/25 A3001 RMK AO2 SLP166 T02830250
KHRL KHRL 111252Z 14005KT 10SM CLR 27/26 A2997 RMK AO2 SLP149 T02670256
KIAH KIAH 111253Z 17003KT 10SM FEW018 28/25 A3002 RMK AO2 SLP164 T02830250
KLCH KLCH 111253Z 00000KT 10SM CLR 26/26 A3003 RMK AO2 SLP175 T02560256
KMOB KMOB 111256Z VRB03KT 10SM SCT050 BKN250 26/25 A3006 RMK AO2 SLP175 CB DSNT E-S T02560250
KMSY KMSY 111253Z 00000KT 10SM FEW020 FEW250 28/24 A3005 RMK AO2 SLP178 CB DSNT SE T02780239
KSAT KSAT 111251Z 18008KT 10SM BKN015 BKN026 BKN250 27/23 A3003 RMK AO2 SLP150 T02670233
KSGR KSGR 111253Z 18004KT 10SM CLR 28/26 A3001 RMK AO2 SLP163 T02780256
KTME KTME 111315Z AUTO 20004KT 9SM CLR 28/26 A3005 RMK AO2